createdAt,value
2019-04-25T00:00:36.534Z,44.67
2019-04-25T00:03:12.206Z,46.13
2019-04-25T00:05:46.857Z,38.70
2019-04-25T00:08:21.485Z,36.10
2019-04-25T00:10:55.241Z,28.07
2019-04-25T00:13:31.719Z,35.73
2019-04-25T00:16:05.670Z,33.23
2019-04-25T00:18:40.096Z,36.53
2019-04-25T00:21:42.194Z,38.70
2019-04-25T00:24:42.618Z,50.17
2019-04-25T00:27:15.208Z,46.60
2019-04-25T00:29:48.757Z,55.87
2019-04-25T00:32:21.631Z,53.87
2019-04-25T00:34:56.835Z,57.13
2019-04-25T00:37:28.874Z,54.60
2019-04-25T00:40:02.168Z,51.37
2019-04-25T00:42:37.319Z,62.93
2019-04-25T00:45:13.991Z,36.47
2019-04-25T00:47:47.758Z,32.63
2019-04-25T00:50:19.762Z,24.93
2019-04-25T00:52:53.759Z,24.40
2019-04-25T00:55:37.463Z,24.70
2019-04-25T00:58:40.155Z,22.37
2019-04-25T01:01:31.713Z,20.07
2019-04-25T01:04:03.858Z,19.87
2019-04-25T01:06:35.439Z,20.13
2019-04-25T01:09:13.925Z,23.70
2019-04-25T01:11:47.999Z,25.00
2019-04-25T01:14:21.808Z,17.27
2019-04-25T01:16:54.956Z,23.17
2019-04-25T01:19:28.095Z,16.37
2019-04-25T01:22:00.423Z,15.93
2019-04-25T01:24:34.001Z,31.73
2019-04-25T01:27:07.522Z,46.17
2019-04-25T01:29:40.416Z,47.63
2019-04-25T01:32:14.601Z,47.80
2019-04-25T01:35:14.038Z,42.70
2019-04-25T01:37:55.864Z,51.83
2019-04-25T01:40:51.193Z,48.13
2019-04-25T01:43:43.679Z,49.47
2019-04-25T01:46:16.514Z,51.13
2019-04-25T01:48:50.086Z,50.13
2019-04-25T01:51:24.007Z,57.77
2019-04-25T01:53:56.805Z,44.87
2019-04-25T01:56:29.929Z,48.83
2019-04-25T01:59:03.743Z,43.00
2019-04-25T02:01:37.903Z,38.80
2019-04-25T02:04:19.780Z,40.93
2019-04-25T02:06:54.363Z,43.93
2019-04-25T02:09:27.107Z,35.93
2019-04-25T02:12:04.889Z,33.77
2019-04-25T02:14:38.723Z,30.53
2019-04-25T02:17:10.859Z,35.43
2019-04-25T02:19:44.138Z,30.27
2019-04-25T02:22:15.831Z,31.37
2019-04-25T02:24:47.874Z,33.30
2019-04-25T02:27:19.383Z,26.90
2019-04-25T02:29:50.918Z,31.17
2019-04-25T02:32:24.606Z,28.50
2019-04-25T02:35:00.958Z,27.33
2019-04-25T02:37:31.508Z,33.63
2019-04-25T02:40:06.670Z,39.17
2019-04-25T02:42:36.525Z,32.00
2019-04-25T02:45:28.110Z,33.43
2019-04-25T02:48:16.901Z,38.43
2019-04-25T02:50:56.447Z,36.43
2019-04-25T02:53:39.638Z,39.57
2019-04-25T02:56:27.525Z,39.43
2019-04-25T02:58:45.708Z,46.60
2019-04-25T03:01:22.680Z,35.27
2019-04-25T03:03:54.557Z,44.37
2019-04-25T03:06:25.925Z,47.90
2019-04-25T03:08:58.076Z,49.33
2019-04-25T03:11:34.700Z,47.40
2019-04-25T03:14:09.995Z,53.67
2019-04-25T03:16:41.428Z,48.97
2019-04-25T03:19:26.846Z,47.57
2019-04-25T03:22:00.111Z,53.30
2019-04-25T03:24:35.090Z,68.37
2019-04-25T03:27:07.470Z,65.10
2019-04-25T03:29:39.003Z,74.47
2019-04-25T03:32:14.328Z,68.80
2019-04-25T03:34:45.603Z,70.70
2019-04-25T03:37:17.525Z,63.73
2019-04-25T03:39:49.455Z,74.27
2019-04-25T03:42:21.121Z,82.27
2019-04-25T03:44:53.878Z,75.93
2019-04-25T03:47:25.984Z,70.70
2019-04-25T03:49:58.487Z,67.33
2019-04-25T03:52:30.935Z,82.43
2019-04-25T03:55:05.125Z,70.47
2019-04-25T03:57:38.040Z,63.57
2019-04-25T04:00:10.719Z,58.63
2019-04-25T04:02:44.235Z,64.10
2019-04-25T04:05:17.627Z,70.20
2019-04-25T04:07:50.551Z,56.57
2019-04-25T04:10:24.792Z,56.87
2019-04-25T04:12:56.840Z,60.90
2019-04-25T04:15:29.940Z,67.10
2019-04-25T04:18:07.180Z,59.87
2019-04-25T04:20:58.531Z,57.63
2019-04-25T04:23:37.413Z,77.23
2019-04-25T04:26:11.392Z,80.53
2019-04-25T04:28:43.654Z,67.43
2019-04-25T04:31:16.479Z,62.17
2019-04-25T04:33:48.599Z,66.20
2019-04-25T04:36:20.526Z,76.63
2019-04-25T04:38:54.233Z,79.53
2019-04-25T04:41:28.606Z,134.93
2019-04-25T04:44:01.062Z,145.90
2019-04-25T04:46:34.093Z,97.67
2019-04-25T04:49:05.737Z,79.73
2019-04-25T04:51:37.616Z,68.97
2019-04-25T04:54:10.940Z,65.70
2019-04-25T04:56:54.114Z,55.27
2019-04-25T04:59:28.073Z,38.83
2019-04-25T05:02:21.219Z,31.13
2019-04-25T05:05:26.969Z,36.53
2019-04-25T05:08:03.886Z,28.93
2019-04-25T05:10:36.595Z,23.40
2019-04-25T05:13:08.446Z,19.70
2019-04-25T05:15:40.864Z,29.70
2019-04-25T05:18:13.893Z,30.03
2019-04-25T05:20:47.786Z,30.87
2019-04-25T05:29:59.078Z,50.77
2019-04-25T05:32:31.785Z,41.00
2019-04-25T05:35:05.407Z,34.60
2019-04-25T05:37:38.866Z,35.87
2019-04-25T05:40:13.449Z,32.47
2019-04-25T05:42:58.123Z,35.80
2019-04-25T05:45:30.717Z,34.17
2019-04-25T05:48:09.382Z,24.13
2019-04-25T05:50:43.692Z,31.90
2019-04-25T05:53:17.682Z,22.80
2019-04-25T05:55:50.243Z,24.70
2019-04-25T05:58:24.836Z,26.07
2019-04-25T06:01:01.260Z,25.47
2019-04-25T06:03:34.479Z,27.50
2019-04-25T06:06:06.850Z,32.07
2019-04-25T06:08:44.652Z,35.30
2019-04-25T06:11:36.598Z,31.73
2019-04-25T06:14:13.533Z,29.13
2019-04-25T06:16:46.037Z,19.83
2019-04-25T06:19:38.138Z,23.03
2019-04-25T06:22:15.365Z,26.60
2019-04-25T06:24:54.217Z,27.47
2019-04-25T06:27:33.670Z,27.33
2019-04-25T06:30:16.575Z,30.97
2019-04-25T06:32:49.959Z,34.43
2019-04-25T06:35:24.782Z,31.47
2019-04-25T06:37:57.735Z,27.80
2019-04-25T06:40:30.811Z,29.70
2019-04-25T06:43:03.350Z,26.70
2019-04-25T06:45:46.363Z,23.40
2019-04-25T06:48:31.327Z,23.40
2019-04-25T06:51:04.415Z,21.67
2019-04-25T06:53:38.075Z,22.93
2019-04-25T06:56:10.909Z,24.27
2019-04-25T06:58:43.851Z,27.63
2019-04-25T07:01:18.263Z,26.23
2019-04-25T07:03:51.284Z,27.93
2019-04-25T07:06:25.258Z,39.80
2019-04-25T07:08:59.845Z,31.37
2019-04-25T07:11:34.553Z,34.07
2019-04-25T07:14:08.445Z,28.93
2019-04-25T07:16:40.887Z,31.03
2019-04-25T07:19:14.384Z,31.00
2019-04-25T07:21:47.508Z,25.57
2019-04-25T07:24:19.931Z,23.97
2019-04-25T07:27:09.729Z,26.70
2019-04-25T07:30:00.635Z,23.43
2019-04-25T07:32:41.955Z,22.87
2019-04-25T07:35:15.207Z,24.20
2019-04-25T07:37:48.449Z,26.53
2019-04-25T07:40:23.670Z,30.97
2019-04-25T07:42:57.085Z,30.07
2019-04-25T07:45:30.848Z,27.60
2019-04-25T07:48:04.096Z,31.57
2019-04-25T07:50:37.277Z,29.87
2019-04-25T07:53:10.955Z,21.50
2019-04-25T07:55:45.160Z,22.87
2019-04-25T07:58:17.586Z,25.07
2019-04-25T08:00:49.963Z,19.23
2019-04-25T08:03:23.725Z,25.77
2019-04-25T08:05:56.723Z,21.03
2019-04-25T08:08:30.048Z,19.50
2019-04-25T08:11:05.595Z,19.23
2019-04-25T08:13:54.526Z,18.50
2019-04-25T08:16:30.984Z,24.97
2019-04-25T08:19:06.090Z,25.80
2019-04-25T08:21:38.609Z,21.37
2019-04-25T08:24:11.458Z,29.00
2019-04-25T08:26:44.611Z,20.07
2019-04-25T08:29:18.125Z,19.27
2019-04-25T08:31:51.207Z,15.03
2019-04-25T08:34:35.983Z,15.63
2019-04-25T08:37:17.286Z,17.93
2019-04-25T08:39:44.210Z,19.70
2019-04-25T08:42:17.047Z,21.40
2019-04-25T08:44:49.032Z,16.47
2019-04-25T08:47:21.436Z,24.07
2019-04-25T08:50:01.686Z,18.83
2019-04-25T08:52:35.464Z,20.23
2019-04-25T08:55:32.636Z,18.60
2019-04-25T08:58:14.720Z,18.83
2019-04-25T09:01:09.394Z,17.70
2019-04-25T09:03:48.412Z,19.70
2019-04-25T09:06:20.851Z,19.40
2019-04-25T09:08:54.247Z,18.73
2019-04-25T09:11:28.438Z,21.60
2019-04-25T09:14:00.868Z,15.87
2019-04-25T09:16:35.420Z,15.23
2019-04-25T09:19:09.312Z,13.60
2019-04-25T09:21:48.048Z,12.97
2019-04-25T09:26:58.503Z,12.57
2019-04-25T09:29:30.604Z,14.73
2019-04-25T09:32:04.701Z,11.10
2019-04-25T09:34:38.048Z,18.83
2019-04-25T09:37:11.326Z,12.87
2019-04-25T09:40:05.978Z,8.40
2019-04-25T09:42:39.429Z,15.53
2019-04-25T09:45:30.687Z,13.97
2019-04-25T09:48:20.722Z,11.77
2019-04-25T09:50:58.887Z,11.80
2019-04-25T09:53:30.868Z,14.53
2019-04-25T09:56:14.077Z,10.03
2019-04-25T09:58:55.572Z,12.10
2019-04-25T10:01:28.791Z,14.67
2019-04-25T10:04:01.319Z,15.60
2019-04-25T10:06:33.762Z,12.70
2019-04-25T10:09:07.473Z,15.03
2019-04-25T10:11:43.364Z,12.63
2019-04-25T10:14:28.828Z,26.67
2019-04-25T10:17:03.987Z,13.17
2019-04-25T10:19:39.046Z,8.70
2019-04-25T10:22:13.664Z,13.93
2019-04-25T10:24:59.988Z,21.57
2019-04-25T10:27:27.031Z,13.67
2019-04-25T10:30:00.453Z,18.13
2019-04-25T10:32:36.042Z,12.57
2019-04-25T10:35:09.600Z,14.77
2019-04-25T10:37:41.399Z,18.47
2019-04-25T10:40:15.555Z,16.43
2019-04-25T10:42:50.645Z,12.27
2019-04-25T10:45:26.053Z,14.17
2019-04-25T10:47:58.937Z,13.57
2019-04-25T10:50:31.253Z,12.93
2019-04-25T10:53:04.244Z,12.63
2019-04-25T10:55:37.474Z,11.50
2019-04-25T10:58:09.446Z,27.10
2019-04-25T11:00:46.137Z,12.90
2019-04-25T11:03:42.680Z,12.87
2019-04-25T11:06:18.108Z,11.30
2019-04-25T11:08:50.815Z,14.50
2019-04-25T11:11:24.550Z,13.10
2019-04-25T11:14:03.280Z,17.57
2019-04-25T11:16:46.608Z,13.60
2019-04-25T11:19:18.703Z,9.93
2019-04-25T11:21:53.660Z,21.03
2019-04-25T11:24:26.584Z,11.37
2019-04-25T11:26:58.591Z,13.20
2019-04-25T11:29:33.976Z,11.57
2019-04-25T11:32:08.233Z,17.27
2019-04-25T11:34:40.976Z,18.97
2019-04-25T11:37:15.001Z,14.87
2019-04-25T11:40:14.429Z,14.30
2019-04-25T11:42:48.280Z,11.63
2019-04-25T11:45:24.024Z,14.60
2019-04-25T11:47:57.822Z,15.43
2019-04-25T11:50:33.385Z,12.43
2019-04-25T11:53:06.467Z,10.13
2019-04-25T11:55:40.090Z,17.03
2019-04-25T11:58:14.304Z,12.90
2019-04-25T12:00:48.836Z,13.90
2019-04-25T12:03:22.983Z,21.43
2019-04-25T12:05:58.049Z,15.53
2019-04-25T12:08:33.565Z,10.53
2019-04-25T12:11:06.514Z,12.97
2019-04-25T12:13:39.703Z,11.53
2019-04-25T12:16:14.284Z,13.97
2019-04-25T12:18:50.290Z,12.87
2019-04-25T12:21:24.963Z,11.37
2019-04-25T12:23:58.248Z,13.60
2019-04-25T12:26:33.587Z,12.33
2019-04-25T12:29:10.047Z,12.27
2019-04-25T12:31:45.498Z,11.73
2019-04-25T12:34:18.469Z,10.73
2019-04-25T12:36:52.249Z,11.00
2019-04-25T12:39:25.880Z,12.07
2019-04-25T12:42:00.154Z,9.50
2019-04-25T12:44:48.826Z,12.87
2019-04-25T12:47:24.627Z,13.10
2019-04-25T12:49:57.925Z,11.03
2019-04-25T12:52:30.727Z,11.10
2019-04-25T12:55:04.087Z,10.83
2019-04-25T12:57:38.856Z,11.30
2019-04-25T13:00:14.135Z,11.90
2019-04-25T13:02:48.591Z,12.47
2019-04-25T13:05:24.321Z,10.67
2019-04-25T13:08:00.151Z,10.90
2019-04-25T13:10:33.927Z,7.27
2019-04-25T13:13:08.373Z,7.53
2019-04-25T13:15:45.711Z,8.00
2019-04-25T13:18:16.640Z,12.80
2019-04-25T13:20:50.275Z,9.83
2019-04-25T13:23:24.523Z,8.13
2019-04-25T13:25:57.319Z,9.53
2019-04-25T13:28:51.120Z,13.07
2019-04-25T13:31:41.632Z,14.77
2019-04-25T13:34:20.267Z,10.70
2019-04-25T13:36:54.269Z,11.27
2019-04-25T13:39:28.155Z,8.53
2019-04-25T13:42:02.412Z,8.67
2019-04-25T13:44:37.111Z,9.47
2019-04-25T13:47:11.931Z,7.70
2019-04-25T13:49:46.675Z,12.57
2019-04-25T13:52:19.870Z,12.27
2019-04-25T13:54:53.746Z,11.67
2019-04-25T13:57:26.327Z,10.20
2019-04-25T14:00:00.903Z,7.40
2019-04-25T14:02:34.112Z,9.93
2019-04-25T14:05:07.572Z,9.20
2019-04-25T14:07:41.156Z,8.50
2019-04-25T14:10:14.981Z,11.87
2019-04-25T14:12:47.779Z,13.20
2019-04-25T14:15:25.147Z,7.00
2019-04-25T14:18:13.745Z,8.73
2019-04-25T14:21:03.480Z,9.87
2019-04-25T14:23:37.595Z,10.87
2019-04-25T14:26:11.703Z,8.47
2019-04-25T14:28:45.859Z,10.83
2019-04-25T14:31:35.417Z,6.33
2019-04-25T14:33:56.382Z,12.50
2019-04-25T14:36:35.478Z,5.70
2019-04-25T14:39:09.087Z,8.33
2019-04-25T14:41:42.378Z,9.20
2019-04-25T14:44:14.333Z,6.70
2019-04-25T14:46:47.449Z,11.73
2019-04-25T14:49:21.632Z,7.63
2019-04-25T14:51:54.931Z,9.23
2019-04-25T14:54:36.986Z,6.53
2019-04-25T14:57:15.432Z,11.80
2019-04-25T14:59:48.896Z,9.73
2019-04-25T15:02:22.691Z,8.13
2019-04-25T15:04:55.581Z,12.30
2019-04-25T15:07:27.999Z,7.57
2019-04-25T15:10:01.257Z,11.63
2019-04-25T15:12:35.884Z,9.83
2019-04-25T15:15:08.347Z,4.33
2019-04-25T15:17:46.353Z,9.67
2019-04-25T15:20:17.151Z,8.70
2019-04-25T15:22:49.515Z,15.43
2019-04-25T15:25:21.836Z,13.73
2019-04-25T15:27:55.649Z,13.77
2019-04-25T15:30:32.475Z,10.50
2019-04-25T15:33:06.620Z,12.87
2019-04-25T15:35:45.436Z,8.30
2019-04-25T15:38:27.715Z,12.90
2019-04-25T15:41:23.984Z,12.13
2019-04-25T15:44:22.779Z,6.80
2019-04-25T15:46:59.211Z,11.80
2019-04-25T15:49:34.421Z,8.43
2019-04-25T15:52:08.047Z,13.43
2019-04-25T15:54:41.155Z,9.33
2019-04-25T15:57:13.528Z,7.67
2019-04-25T15:59:49.825Z,8.40
2019-04-25T16:02:24.893Z,13.63
2019-04-25T16:04:58.255Z,20.23
2019-04-25T16:07:33.908Z,19.07
2019-04-25T16:10:08.523Z,19.67
2019-04-25T16:12:42.468Z,24.67
2019-04-25T16:15:24.788Z,24.77
2019-04-25T16:17:58.383Z,15.13
2019-04-25T16:20:32.163Z,18.50
2019-04-25T16:23:06.137Z,14.23
2019-04-25T16:25:40.099Z,20.13
2019-04-25T16:28:14.890Z,22.97
2019-04-25T16:30:49.111Z,17.47
2019-04-25T16:33:21.729Z,19.77
2019-04-25T16:35:56.735Z,20.70
2019-04-25T16:38:31.159Z,22.87
2019-04-25T16:41:06.234Z,33.50
2019-04-25T16:43:43.202Z,23.67
2019-04-25T16:46:16.351Z,20.43
2019-04-25T16:48:49.499Z,19.27
2019-04-25T16:51:22.838Z,13.60
2019-04-25T16:53:55.627Z,14.67
2019-04-25T16:56:29.407Z,17.63
2019-04-25T16:59:02.562Z,17.40
2019-04-25T17:01:35.992Z,18.60
2019-04-25T17:04:10.051Z,19.43
2019-04-25T17:06:43.099Z,16.70
2019-04-25T17:09:16.975Z,12.57
2019-04-25T17:11:51.679Z,16.87
2019-04-25T17:14:39.792Z,14.87
2019-04-25T17:17:29.346Z,17.47
2019-04-25T17:20:12.835Z,11.77
2019-04-25T17:22:46.270Z,16.03
2019-04-25T17:25:20.040Z,14.80
2019-04-25T17:27:52.783Z,17.53
2019-04-25T17:30:27.136Z,13.07
2019-04-25T17:33:18.107Z,12.23
2019-04-25T17:36:10.277Z,14.50
2019-04-25T17:38:46.923Z,15.00
2019-04-25T17:41:19.839Z,12.57
2019-04-25T17:43:53.275Z,14.77
2019-04-25T17:46:26.416Z,17.20
2019-04-25T17:49:00.201Z,17.83
2019-04-25T17:51:33.381Z,23.57
2019-04-25T17:54:07.617Z,27.37
2019-04-25T17:56:43.035Z,16.73
2019-04-25T17:59:17.737Z,24.70
2019-04-25T18:01:52.275Z,19.20
2019-04-25T18:04:25.162Z,18.80
2019-04-25T18:06:59.336Z,20.17
2019-04-25T18:09:31.763Z,21.33
2019-04-25T18:12:03.587Z,19.70
2019-04-25T18:14:37.029Z,17.73
2019-04-25T18:17:10.631Z,16.40
2019-04-25T18:19:47.367Z,17.93
2019-04-25T18:22:39.439Z,20.13
2019-04-25T18:25:45.418Z,22.23
2019-04-25T18:28:25.863Z,19.90
2019-04-25T18:31:00.582Z,18.13
2019-04-25T18:33:33.430Z,23.43
2019-04-25T18:36:15.020Z,27.93
2019-04-25T18:38:55.401Z,32.17
2019-04-25T18:41:48.175Z,30.20
2019-04-25T18:44:20.967Z,28.33
2019-04-25T18:46:55.036Z,26.90
2019-04-25T18:49:27.611Z,28.03
2019-04-25T18:52:06.809Z,25.97
2019-04-25T18:54:58.263Z,27.67
2019-04-25T19:00:57.623Z,32.03
2019-04-25T19:03:58.789Z,30.40
2019-04-25T19:06:32.496Z,32.00
2019-04-25T19:09:07.709Z,32.60
2019-04-25T19:11:40.920Z,41.27
2019-04-25T19:14:13.578Z,34.00
2019-04-25T19:16:46.467Z,30.53
2019-04-25T19:19:20.347Z,30.63
2019-04-25T19:21:53.215Z,29.90
2019-04-25T19:24:25.802Z,28.37
2019-04-25T19:26:58.577Z,26.60
2019-04-25T19:29:32.907Z,29.70
2019-04-25T19:32:05.952Z,24.63
2019-04-25T19:34:41.252Z,23.47
2019-04-25T19:37:16.213Z,25.17
2019-04-25T19:40:07.988Z,31.03
2019-04-25T19:42:46.813Z,33.23
2019-04-25T19:45:19.016Z,29.80
2019-04-25T19:47:53.564Z,27.37
2019-04-25T19:50:27.966Z,30.87
2019-04-25T19:53:00.727Z,34.53
2019-04-25T19:55:34.503Z,31.80
2019-04-25T19:58:07.354Z,27.73
2019-04-25T20:00:39.871Z,28.40
2019-04-25T20:03:17.348Z,31.87
2019-04-25T20:06:04.112Z,40.57
2019-04-25T20:08:54.799Z,31.80
2019-04-25T20:11:33.542Z,32.10
2019-04-25T20:14:25.579Z,29.50
2019-04-25T20:16:58.453Z,42.77
2019-04-25T20:19:33.185Z,30.80
2019-04-25T20:22:05.795Z,43.40
2019-04-25T20:24:38.656Z,29.17
2019-04-25T20:27:11.341Z,30.20
2019-04-25T20:29:45.296Z,22.53
2019-04-25T20:32:19.921Z,35.30
2019-04-25T20:34:55.207Z,35.13
2019-04-25T20:37:29.097Z,28.10
2019-04-25T20:40:02.886Z,31.40
2019-04-25T20:42:37.247Z,30.03
2019-04-25T20:45:10.914Z,28.13
2019-04-25T20:47:44.086Z,36.13
2019-04-25T20:50:18.724Z,32.83
2019-04-25T20:52:52.850Z,33.57
2019-04-25T20:55:27.683Z,32.00
2019-04-25T20:58:00.258Z,30.73
2019-04-25T21:00:44.800Z,29.47
2019-04-25T21:03:17.631Z,27.70
2019-04-25T21:05:51.779Z,28.70
2019-04-25T21:08:24.697Z,30.60
2019-04-25T21:10:57.933Z,26.53
2019-04-25T21:13:38.962Z,25.07
2019-04-25T21:16:33.415Z,27.97
2019-04-25T21:19:10.707Z,32.63
2019-04-25T21:21:43.376Z,33.33
2019-04-25T21:24:16.698Z,25.30
2019-04-25T21:26:49.132Z,25.17
2019-04-25T21:29:25.699Z,25.93
2019-04-25T21:31:58.789Z,32.57
2019-04-25T21:34:32.037Z,24.30
2019-04-25T21:37:06.193Z,28.73
2019-04-25T21:40:03.224Z,24.57
2019-04-25T21:42:41.125Z,26.57
2019-04-25T21:45:14.388Z,30.53
2019-04-25T21:47:46.790Z,25.97
2019-04-25T21:50:20.666Z,27.77
2019-04-25T21:52:54.448Z,32.00
2019-04-25T21:55:27.890Z,27.33
2019-04-25T21:58:00.408Z,26.53
2019-04-25T22:00:52.604Z,28.87
2019-04-25T22:03:27.650Z,36.93
2019-04-25T22:06:00.922Z,26.33
2019-04-25T22:08:34.410Z,25.77
2019-04-25T22:11:08.674Z,25.50
2019-04-25T22:13:41.664Z,29.03
2019-04-25T22:16:18.085Z,24.87
2019-04-25T22:18:53.387Z,23.43
2019-04-25T22:21:38.975Z,23.37
2019-04-25T22:24:14.656Z,23.73
2019-04-25T22:26:48.773Z,22.27
2019-04-25T22:29:22.694Z,22.83
2019-04-25T22:32:17.647Z,25.00
2019-04-25T22:34:59.775Z,27.20
2019-04-25T22:37:32.256Z,27.17
2019-04-25T22:40:06.086Z,24.27
2019-04-25T22:42:39.235Z,21.13
2019-04-25T22:45:12.790Z,23.33
2019-04-25T22:47:46.231Z,24.53
2019-04-25T22:50:19.648Z,32.93
2019-04-25T22:52:53.214Z,27.17
2019-04-25T22:55:27.929Z,26.30
2019-04-25T22:58:01.244Z,27.97
2019-04-25T23:00:38.334Z,27.87
2019-04-25T23:03:20.326Z,26.97
2019-04-25T23:05:58.112Z,27.73
2019-04-25T23:08:29.899Z,24.50
2019-04-25T23:11:02.859Z,26.97
2019-04-25T23:13:35.367Z,26.20
2019-04-25T23:16:08.992Z,27.33
2019-04-25T23:18:44.421Z,25.90
2019-04-25T23:21:17.731Z,27.90
2019-04-25T23:23:49.635Z,24.27
2019-04-25T23:26:43.552Z,24.60
2019-04-25T23:29:16.972Z,28.17
2019-04-25T23:31:49.715Z,26.77
2019-04-25T23:34:22.411Z,27.93
2019-04-25T23:36:56.165Z,25.77
2019-04-25T23:39:29.447Z,23.13
2019-04-25T23:42:01.841Z,26.27
2019-04-25T23:44:34.536Z,28.13
2019-04-25T23:47:08.346Z,27.83
2019-04-25T23:49:40.854Z,34.47
2019-04-25T23:52:15.025Z,29.07
2019-04-25T23:54:48.947Z,29.83
2019-04-25T23:57:22.077Z,32.87
2019-04-25T23:59:55.448Z,35.57
